KRRL

Details ICAO KRRL
Name Merrill Muni
Region United States
Timezone America/Chicago (UTC-5.0)
Plans Departing 1
Arriving 0
Stats Elevation 1,318 ft / 402 m (AMSL)
Location 45.199133° -89.711762°
Runways 2
Magnetic Variation 2.805° W
Sunrise 2018-05-26 10:20:05 UTC / 2018-05-26 05:20:05 Local
Sunset 2018-05-27 01:34:38 UTC / 2018-05-26 20:34:38 Local
Advertisement - Login to hide

Runways

ID Width Length Bearing (true) Bearing (mag) Surface Threshold Offset Overrun Length
07 75 ft / 23 m 5,089 ft / 1,551 m 68.50° 71.30° Asphalt 0 ft / 0 m 0 ft / 0 m
16 75 ft / 23 m 2,998 ft / 914 m 156.63° 159.43° Asphalt 0 ft / 0 m 0 ft / 0 m
25 75 ft / 23 m 5,089 ft / 1,551 m 248.52° 251.32° Asphalt 0 ft / 0 m 0 ft / 0 m
34 75 ft / 23 m 2,998 ft / 914 m 336.63° 339.43° Asphalt 0 ft / 0 m 0 ft / 0 m

Map

Weather


0- 5 10 15 20 25 30 35+ Temperature / ° C

Clouds and Precipitation
Forecast for 2018-05-26 18:00 UTC. Updated an hour ago

Ground ~20,000 ft ~40,000 ft Winds

METAR

KRRL 261815Z AUTO 23008G14KT 10SM CLR 31/15 A2973 RMK AO2 T03110148

TAF

Not found

Frequencies

Recorded 119.92 MHz AWOS 3
Unicom 122.80 MHz CTAF/UNICOM
Warning: Do not use this data for real-world aviation or navigation. No guarantee of current accuracy is given.